createdAt,value
2022-12-11T00:00:31.546Z,-4.28
2022-12-11T00:03:05.225Z,-4.38
2022-12-11T00:05:33.640Z,-4.40
2022-12-11T00:08:03.156Z,-4.19
2022-12-11T00:10:37.573Z,-4.20
2022-12-11T00:13:06.276Z,-4.11
2022-12-11T00:15:34.307Z,-4.14
2022-12-11T00:18:02.554Z,-4.07
2022-12-11T00:20:30.565Z,-4.32
2022-12-11T00:22:58.741Z,-4.65
2022-12-11T00:25:28.114Z,-4.60
2022-12-11T00:27:56.204Z,-4.76
2022-12-11T00:30:24.337Z,-4.67
2022-12-11T00:32:58.433Z,-4.82
2022-12-11T00:35:26.613Z,-5.05
2022-12-11T00:37:58.055Z,-5.16
2022-12-11T00:40:27.414Z,-5.41
2022-12-11T00:42:55.712Z,-5.33
2022-12-11T00:45:23.725Z,-5.17
2022-12-11T00:47:51.862Z,-4.87
2022-12-11T00:50:19.931Z,-4.63
2022-12-11T00:52:47.922Z,-4.68
2022-12-11T00:55:15.956Z,-4.63
2022-12-11T00:57:45.370Z,-4.78
2022-12-11T01:00:17.445Z,-4.77
2022-12-11T01:02:45.501Z,-4.82
2022-12-11T01:05:13.640Z,-4.71
2022-12-11T01:07:41.803Z,-4.87
2022-12-11T01:10:27.254Z,-4.80
2022-12-11T01:12:58.533Z,-4.73
2022-12-11T01:15:28.417Z,-4.61
2022-12-11T01:17:59.670Z,-4.73
2022-12-11T01:20:29.105Z,-4.66
2022-12-11T01:22:59.831Z,-4.55
2022-12-11T01:25:29.416Z,-4.63
2022-12-11T01:27:58.828Z,-4.37
2022-12-11T01:30:27.358Z,-4.26
2022-12-11T01:33:01.310Z,-4.24
2022-12-11T01:35:32.666Z,-4.27
2022-12-11T01:38:00.746Z,-4.40
2022-12-11T01:40:28.747Z,-4.34
2022-12-11T01:42:58.209Z,-4.40
2022-12-11T01:45:38.700Z,-4.32
2022-12-11T01:48:12.406Z,-4.47
2022-12-11T01:50:45.760Z,-4.22
2022-12-11T01:53:18.646Z,-4.35
2022-12-11T01:55:50.983Z,-4.20
2022-12-11T01:58:22.080Z,-4.21
2022-12-11T02:00:50.240Z,-4.24
2022-12-11T02:03:18.295Z,-4.16
2022-12-11T02:05:46.460Z,-4.16
2022-12-11T02:08:14.865Z,-4.06
2022-12-11T02:10:58.930Z,-4.19
2022-12-11T02:13:36.293Z,-4.06
2022-12-11T02:16:16.014Z,-4.05
2022-12-11T02:18:50.598Z,-4.05
2022-12-11T02:21:23.290Z,-4.12
2022-12-11T02:24:25.787Z,-4.26
2022-12-11T02:27:22.593Z,-4.31
2022-12-11T02:29:55.058Z,-4.43
2022-12-11T02:32:27.516Z,-4.41
2022-12-11T02:35:01.457Z,-4.28
2022-12-11T02:37:32.398Z,-4.20
2022-12-11T02:40:00.444Z,-4.18
2022-12-11T02:42:34.474Z,-4.18
2022-12-11T02:45:06.093Z,-4.29
2022-12-11T02:47:34.630Z,-4.32
2022-12-11T02:50:07.570Z,-4.28
2022-12-11T02:52:40.530Z,-4.34
2022-12-11T02:55:11.293Z,-4.40
2022-12-11T02:57:44.137Z,-4.34
2022-12-11T03:00:18.750Z,-4.54
2022-12-11T03:02:47.594Z,-4.64
2022-12-11T03:05:16.648Z,-4.57
2022-12-11T03:07:45.662Z,-4.51
2022-12-11T03:10:16.865Z,-4.37
2022-12-11T03:12:53.951Z,-4.48
2022-12-11T03:15:30.352Z,-4.38
2022-12-11T03:18:05.106Z,-4.52
2022-12-11T03:20:39.378Z,-4.53
2022-12-11T03:23:21.250Z,-4.53
2022-12-11T03:25:55.041Z,-4.60
2022-12-11T03:28:28.781Z,-4.83
2022-12-11T03:30:58.189Z,-4.80
2022-12-11T03:33:35.780Z,-4.96
2022-12-11T03:36:08.275Z,-5.09
2022-12-11T03:38:40.332Z,-5.14
2022-12-11T03:41:10.304Z,-5.22
2022-12-11T03:43:39.974Z,-5.30
2022-12-11T03:46:11.736Z,-5.44
2022-12-11T03:48:42.837Z,-5.37
2022-12-11T03:51:11.186Z,-5.31
2022-12-11T03:53:40.365Z,-5.20
2022-12-11T03:56:11.557Z,-5.19
2022-12-11T03:58:39.977Z,-5.36
2022-12-11T04:01:12.008Z,-5.48
2022-12-11T04:03:40.686Z,-5.37
2022-12-11T04:06:09.108Z,-5.41
2022-12-11T04:08:37.264Z,-5.38
2022-12-11T04:11:23.269Z,-5.40
2022-12-11T04:14:11.407Z,-5.25
2022-12-11T04:16:39.795Z,-5.25
2022-12-11T04:19:25.264Z,-5.29
2022-12-11T04:22:10.435Z,-5.45
2022-12-11T04:24:38.408Z,-5.19
2022-12-11T04:27:06.443Z,-5.13
2022-12-11T04:29:34.543Z,-4.99
2022-12-11T04:32:06.894Z,-4.95
2022-12-11T04:34:36.975Z,-4.91
2022-12-11T04:37:04.967Z,-4.82
2022-12-11T04:39:33.055Z,-4.72
2022-12-11T04:42:04.217Z,-4.86
2022-12-11T04:44:32.219Z,-4.87
2022-12-11T04:47:00.186Z,-5.12
2022-12-11T04:49:32.330Z,-4.92
2022-12-11T04:52:00.368Z,-4.79
2022-12-11T04:54:30.279Z,-4.96
2022-12-11T04:56:58.263Z,-5.29
2022-12-11T04:59:29.521Z,-5.16
2022-12-11T05:01:57.708Z,-4.96
2022-12-11T05:04:25.930Z,-5.09
2022-12-11T05:06:55.357Z,-5.00
2022-12-11T05:09:23.457Z,-5.09
2022-12-11T05:11:51.778Z,-5.15
2022-12-11T05:14:20.034Z,-4.96
2022-12-11T05:16:48.478Z,-4.89
2022-12-11T05:19:20.166Z,-5.06
2022-12-11T05:21:48.109Z,-4.98
2022-12-11T05:24:17.589Z,-4.73
2022-12-11T05:26:45.611Z,-4.73
2022-12-11T05:29:13.644Z,-4.81
2022-12-11T05:31:41.856Z,-4.59
2022-12-11T05:34:13.034Z,-4.45
2022-12-11T05:36:41.548Z,-4.43
2022-12-11T05:39:09.930Z,-4.31
2022-12-11T05:41:39.384Z,-4.25
2022-12-11T05:44:07.385Z,-4.41
2022-12-11T05:46:35.839Z,-4.40
2022-12-11T05:49:03.898Z,-4.31
2022-12-11T05:51:34.368Z,-4.36
2022-12-11T05:54:02.684Z,-4.46
2022-12-11T05:56:33.741Z,-4.53
2022-12-11T05:59:09.600Z,-4.55
2022-12-11T06:01:42.388Z,-4.45
2022-12-11T06:04:12.049Z,-4.38
2022-12-11T06:06:41.540Z,-4.36
2022-12-11T06:09:09.689Z,-4.29
2022-12-11T06:11:37.711Z,-4.25
2022-12-11T06:14:07.171Z,-4.18
2022-12-11T06:16:35.181Z,-4.12
2022-12-11T06:19:03.397Z,-4.00
2022-12-11T06:21:33.202Z,-4.03
2022-12-11T06:24:06.832Z,-4.02
2022-12-11T06:26:34.784Z,-4.01
2022-12-11T06:29:05.291Z,-4.01
2022-12-11T06:31:38.500Z,-4.19
2022-12-11T06:34:06.576Z,-3.99
2022-12-11T06:36:34.591Z,-3.97
2022-12-11T06:39:02.584Z,-4.08
2022-12-11T06:41:30.549Z,-3.99
2022-12-11T06:43:58.567Z,-3.95
2022-12-11T06:46:26.619Z,-3.95
2022-12-11T06:48:56.100Z,-3.96
2022-12-11T06:51:24.912Z,-3.92
2022-12-11T06:53:54.086Z,-3.91
2022-12-11T06:56:26.242Z,-3.91
2022-12-11T06:59:07.072Z,-3.87
2022-12-11T07:01:37.753Z,-3.92
2022-12-11T07:04:13.678Z,-3.92
2022-12-11T07:06:42.560Z,-3.90
2022-12-11T07:09:19.280Z,-3.87
2022-12-11T07:11:52.886Z,-3.80
2022-12-11T07:14:22.481Z,-3.84
2022-12-11T07:16:51.711Z,-3.69
2022-12-11T07:19:22.209Z,-3.76
2022-12-11T07:21:51.363Z,-3.81
2022-12-11T07:24:20.851Z,-3.75
2022-12-11T07:26:49.355Z,-3.81
2022-12-11T07:29:18.626Z,-3.74
2022-12-11T07:31:46.655Z,-3.67
2022-12-11T07:34:15.278Z,-3.70
2022-12-11T07:36:44.840Z,-3.67
2022-12-11T07:39:13.719Z,-3.56
2022-12-11T07:41:41.740Z,-3.63
2022-12-11T07:44:10.031Z,-3.63
2022-12-11T07:46:37.994Z,-3.58
2022-12-11T07:49:06.995Z,-3.59
2022-12-11T07:51:36.817Z,-3.46
2022-12-11T07:54:08.593Z,-3.35
2022-12-11T07:56:37.427Z,-3.41
2022-12-11T07:59:07.565Z,-3.48
2022-12-11T08:01:36.786Z,-3.27
2022-12-11T08:04:05.906Z,-3.24
2022-12-11T08:06:36.247Z,-3.24
2022-12-11T08:09:08.277Z,-3.25
2022-12-11T08:11:36.622Z,-3.13
2022-12-11T08:14:06.526Z,-3.16
2022-12-11T08:16:34.664Z,-3.17
2022-12-11T08:19:02.729Z,-3.23
2022-12-11T08:21:30.717Z,-3.29
2022-12-11T08:23:58.719Z,-3.13
2022-12-11T08:26:30.061Z,-3.12
2022-12-11T08:28:58.714Z,-3.01
2022-12-11T08:31:27.475Z,-3.05
2022-12-11T08:33:57.234Z,-3.02
2022-12-11T08:36:26.298Z,-3.09
2022-12-11T08:38:56.324Z,-3.05
2022-12-11T08:41:26.574Z,-3.07
2022-12-11T08:43:56.361Z,-3.02
2022-12-11T08:46:25.875Z,-3.11
2022-12-11T08:48:54.225Z,-3.14
2022-12-11T08:51:23.664Z,-3.02
2022-12-11T08:53:52.402Z,-2.91
2022-12-11T08:56:23.706Z,-2.97
2022-12-11T08:58:52.367Z,-2.92
2022-12-11T09:01:24.402Z,-2.91
2022-12-11T09:03:53.734Z,-2.86
2022-12-11T09:06:23.382Z,-2.87
2022-12-11T09:08:53.603Z,-2.81
2022-12-11T09:11:24.652Z,-2.60
2022-12-11T09:13:53.124Z,-2.55
2022-12-11T09:16:24.404Z,-2.58
2022-12-11T09:18:55.133Z,-2.83
2022-12-11T09:21:25.144Z,-2.82
2022-12-11T09:23:54.685Z,-2.93
2022-12-11T09:26:23.144Z,-3.08
2022-12-11T09:28:53.369Z,-3.06
2022-12-11T09:31:27.665Z,-2.76
2022-12-11T09:33:57.932Z,-2.98
2022-12-11T09:36:26.389Z,-3.31
2022-12-11T09:38:54.886Z,-3.12
2022-12-11T09:41:37.981Z,-3.29
2022-12-11T09:44:32.321Z,-3.41
2022-12-11T09:47:02.390Z,-3.41
2022-12-11T09:49:38.949Z,-3.29
2022-12-11T09:52:13.931Z,-3.06
2022-12-11T09:54:49.224Z,-2.92
2022-12-11T09:57:30.205Z,-3.29
2022-12-11T10:00:13.735Z,-3.02
2022-12-11T10:03:01.527Z,-3.03
2022-12-11T10:05:52.029Z,-2.82
2022-12-11T10:08:27.962Z,-2.83
2022-12-11T10:11:04.923Z,-3.21
2022-12-11T10:13:45.615Z,-2.95
2022-12-11T10:16:21.600Z,-2.79
2022-12-11T10:18:56.126Z,-2.67
2022-12-11T10:21:25.950Z,-2.79
2022-12-11T10:24:03.345Z,-2.83
2022-12-11T10:26:32.684Z,-2.65
2022-12-11T10:29:02.692Z,-2.59
2022-12-11T10:31:44.347Z,-2.59
2022-12-11T10:34:18.176Z,-2.77
2022-12-11T10:36:46.534Z,-2.56
2022-12-11T10:39:19.854Z,-2.39
2022-12-11T10:41:52.866Z,-2.41
2022-12-11T10:44:23.373Z,-2.14
2022-12-11T10:47:04.142Z,-2.17
2022-12-11T10:49:35.956Z,-1.97
2022-12-11T10:52:12.062Z,-1.86
2022-12-11T10:54:46.250Z,-1.96
2022-12-11T10:57:16.411Z,-1.86
2022-12-11T10:59:48.429Z,-1.92
2022-12-11T11:02:26.550Z,-1.62
2022-12-11T11:05:00.845Z,-1.84
2022-12-11T11:07:31.181Z,-1.72
2022-12-11T11:10:16.412Z,-1.79
2022-12-11T11:12:46.581Z,-1.63
2022-12-11T11:15:16.835Z,-1.70
2022-12-11T11:17:54.489Z,-1.77
2022-12-11T11:20:27.037Z,-1.80
2022-12-11T11:23:00.144Z,-1.89
2022-12-11T11:25:31.480Z,-1.98
2022-12-11T11:28:02.504Z,-2.01
2022-12-11T11:30:33.536Z,-1.81
2022-12-11T11:33:06.818Z,-1.80
2022-12-11T11:35:39.005Z,-2.18
2022-12-11T11:38:18.596Z,-2.73
2022-12-11T11:40:52.310Z,-2.99
2022-12-11T11:43:30.401Z,-2.51
2022-12-11T11:46:06.044Z,-2.46
2022-12-11T11:48:41.160Z,-2.07
2022-12-11T11:51:22.444Z,-2.28
2022-12-11T11:53:52.609Z,-1.99
2022-12-11T11:56:23.754Z,-1.92
2022-12-11T11:59:02.383Z,-1.80
2022-12-11T12:01:31.596Z,-2.24
2022-12-11T12:04:00.176Z,-1.91
2022-12-11T12:06:38.738Z,-1.99
2022-12-11T12:09:19.312Z,-1.80
2022-12-11T12:11:54.812Z,-2.13
2022-12-11T12:14:51.818Z,-2.09
2022-12-11T12:17:24.276Z,-2.22
2022-12-11T12:20:04.005Z,-1.75
2022-12-11T12:22:52.630Z,-2.06
2022-12-11T12:25:26.914Z,-1.96
2022-12-11T12:28:01.326Z,-1.82
2022-12-11T12:30:41.214Z,-1.68
2022-12-11T12:33:28.372Z,-2.02
2022-12-11T12:36:12.371Z,-1.75
2022-12-11T12:38:52.521Z,-1.50
2022-12-11T12:41:26.696Z,-1.45
2022-12-11T12:44:08.408Z,-1.56
2022-12-11T12:46:50.139Z,-1.40
2022-12-11T12:49:34.112Z,-1.60
2022-12-11T12:52:08.385Z,-1.56
2022-12-11T12:54:39.818Z,-1.81
2022-12-11T12:57:08.534Z,-1.80
2022-12-11T12:59:36.674Z,-1.97
2022-12-11T13:02:07.530Z,-2.09
2022-12-11T13:04:55.424Z,-1.54
2022-12-11T13:07:30.187Z,-1.35
2022-12-11T13:10:08.081Z,-1.42
2022-12-11T13:12:43.661Z,-1.33
2022-12-11T13:15:35.020Z,-1.34
2022-12-11T13:18:05.210Z,-1.42
2022-12-11T13:20:35.077Z,-1.46
2022-12-11T13:23:27.288Z,-1.60
2022-12-11T13:25:58.670Z,-1.43
2022-12-11T13:28:31.338Z,-1.31
2022-12-11T13:31:02.700Z,-1.30
2022-12-11T13:33:31.618Z,-1.59
2022-12-11T13:36:24.801Z,-1.52
2022-12-11T13:38:56.390Z,-2.01
2022-12-11T13:41:26.134Z,-1.69
2022-12-11T13:43:54.943Z,-1.71
2022-12-11T13:46:27.718Z,-1.97
2022-12-11T13:49:01.030Z,-1.84
2022-12-11T13:51:31.825Z,-2.06
2022-12-11T13:54:16.760Z,-1.72
2022-12-11T13:56:57.152Z,-1.71
2022-12-11T13:59:29.088Z,-1.71
2022-12-11T14:02:01.342Z,-1.97
2022-12-11T14:04:31.474Z,-1.71
2022-12-11T14:07:00.539Z,-1.70
2022-12-11T14:09:29.840Z,-1.64
2022-12-11T14:11:59.815Z,-1.74
2022-12-11T14:14:39.792Z,-1.55
2022-12-11T14:17:07.926Z,-1.60
2022-12-11T14:19:36.062Z,-1.66
2022-12-11T14:22:08.014Z,-1.65
2022-12-11T14:24:36.104Z,-1.89
2022-12-11T14:27:05.891Z,-1.81
2022-12-11T14:29:34.963Z,-2.10
2022-12-11T14:32:05.940Z,-1.88
2022-12-11T14:34:38.172Z,-1.91
2022-12-11T14:37:08.452Z,-1.99
2022-12-11T14:39:40.590Z,-1.95
2022-12-11T14:42:15.290Z,-2.03
2022-12-11T14:44:50.441Z,-2.14
2022-12-11T14:47:22.157Z,-2.23
2022-12-11T14:49:54.443Z,-2.23
2022-12-11T14:52:27.471Z,-2.37
2022-12-11T14:55:01.308Z,-2.28
2022-12-11T14:57:32.467Z,-2.21
2022-12-11T15:00:00.832Z,-2.23
2022-12-11T15:02:32.487Z,-2.57
2022-12-11T15:05:18.111Z,-2.66
2022-12-11T15:07:57.120Z,-2.60
2022-12-11T15:10:31.648Z,-2.66
2022-12-11T15:13:02.433Z,-2.79
2022-12-11T15:15:34.938Z,-2.78
2022-12-11T15:18:09.499Z,-3.16
2022-12-11T15:20:42.311Z,-3.01
2022-12-11T15:23:15.513Z,-3.15
2022-12-11T15:25:52.917Z,-3.16
2022-12-11T15:28:29.279Z,-3.26
2022-12-11T15:30:59.189Z,-3.26
2022-12-11T15:33:33.867Z,-3.33
2022-12-11T15:36:05.703Z,-3.27
2022-12-11T15:38:36.922Z,-3.31
2022-12-11T15:41:05.959Z,-3.40
2022-12-11T15:43:38.554Z,-3.65
2022-12-11T15:46:07.588Z,-3.64
2022-12-11T15:48:35.775Z,-3.74
2022-12-11T15:51:04.823Z,-3.74
2022-12-11T15:53:32.924Z,-3.95
2022-12-11T15:56:01.480Z,-4.03
2022-12-11T15:58:30.212Z,-3.75
2022-12-11T16:01:02.607Z,-4.06
2022-12-11T16:03:32.169Z,-3.93
2022-12-11T16:06:00.262Z,-3.98
2022-12-11T16:08:28.327Z,-3.96
2022-12-11T16:10:57.394Z,-3.91
2022-12-11T16:13:26.505Z,-3.99
2022-12-11T16:15:55.394Z,-4.02
2022-12-11T16:18:26.658Z,-4.12
2022-12-11T16:20:55.604Z,-4.29
2022-12-11T16:23:54.618Z,-4.26
2022-12-11T16:26:25.773Z,-4.26
2022-12-11T16:28:54.581Z,-4.32
2022-12-11T16:31:25.052Z,-4.37
2022-12-11T16:33:55.667Z,-4.46
2022-12-11T16:36:24.647Z,-4.69
2022-12-11T16:38:54.335Z,-4.45
2022-12-11T16:41:25.005Z,-4.33
2022-12-11T16:43:54.700Z,-4.48
2022-12-11T16:46:25.399Z,-4.40
2022-12-11T16:48:55.400Z,-4.91
2022-12-11T16:51:27.646Z,-4.65
2022-12-11T16:53:58.666Z,-4.67
2022-12-11T16:56:31.586Z,-4.93
2022-12-11T16:59:00.187Z,-4.98
2022-12-11T17:01:28.673Z,-4.93
2022-12-11T17:04:08.888Z,-4.62
2022-12-11T17:06:38.283Z,-4.62
2022-12-11T17:09:08.372Z,-4.41
2022-12-11T17:11:39.652Z,-4.72
2022-12-11T17:14:07.821Z,-4.63
2022-12-11T17:16:35.868Z,-4.39
2022-12-11T17:19:07.424Z,-4.42
2022-12-11T17:21:35.494Z,-4.60
2022-12-11T17:24:03.542Z,-4.76
2022-12-11T17:26:31.686Z,-4.65
2022-12-11T17:29:00.015Z,-4.62
2022-12-11T17:31:28.406Z,-4.60
2022-12-11T17:33:57.419Z,-4.86
2022-12-11T17:36:27.233Z,-4.84
2022-12-11T17:38:55.424Z,-4.93
2022-12-11T17:41:23.560Z,-4.79
2022-12-11T17:43:52.953Z,-4.89
2022-12-11T17:46:21.982Z,-4.74
2022-12-11T17:48:50.157Z,-4.80
2022-12-11T17:51:23.990Z,-5.02
2022-12-11T17:53:55.413Z,-4.97
2022-12-11T17:56:24.101Z,-4.99
2022-12-11T17:58:52.334Z,-5.09
2022-12-11T18:01:21.583Z,-5.15
2022-12-11T18:03:49.934Z,-5.33
2022-12-11T18:06:18.701Z,-5.39
2022-12-11T18:08:46.957Z,-5.41
2022-12-11T18:11:19.126Z,-5.53
2022-12-11T18:13:47.602Z,-5.52
2022-12-11T18:16:18.222Z,-5.59
2022-12-11T18:18:47.787Z,-5.72
2022-12-11T18:21:17.570Z,-5.69
2022-12-11T18:23:45.762Z,-5.57
2022-12-11T18:26:14.663Z,-5.63
2022-12-11T18:28:44.827Z,-5.69
2022-12-11T18:31:13.671Z,-5.69
2022-12-11T18:33:43.793Z,-5.97
2022-12-11T18:36:12.899Z,-5.65
2022-12-11T18:38:42.143Z,-5.59
2022-12-11T18:41:12.345Z,-5.63
2022-12-11T18:43:40.721Z,-5.76
2022-12-11T18:46:14.814Z,-5.72
2022-12-11T18:48:43.597Z,-5.73
2022-12-11T18:51:13.348Z,-5.89
2022-12-11T18:53:41.893Z,-5.97
2022-12-11T18:56:12.171Z,-6.21
2022-12-11T18:58:40.395Z,-6.21
2022-12-11T19:01:12.534Z,-6.28
2022-12-11T19:03:41.584Z,-6.14
2022-12-11T19:06:12.172Z,-6.18
2022-12-11T19:08:41.094Z,-6.25
2022-12-11T19:11:10.455Z,-6.19
2022-12-11T19:13:39.743Z,-6.22
2022-12-11T19:16:15.982Z,-6.03
2022-12-11T19:18:45.917Z,-6.32
2022-12-11T19:21:20.960Z,-6.54
2022-12-11T19:23:49.163Z,-6.49
2022-12-11T19:26:20.015Z,-6.49
2022-12-11T19:28:49.220Z,-6.50
2022-12-11T19:31:23.859Z,-6.73
2022-12-11T19:33:52.177Z,-6.98
2022-12-11T19:36:24.364Z,-6.94
2022-12-11T19:38:57.963Z,-6.92
2022-12-11T19:41:29.462Z,-6.80
2022-12-11T19:43:59.367Z,-6.85
2022-12-11T19:46:29.645Z,-7.05
2022-12-11T19:48:58.785Z,-6.85
2022-12-11T19:51:29.778Z,-6.68
2022-12-11T19:53:58.470Z,-6.75
2022-12-11T19:56:30.915Z,-6.85
2022-12-11T19:59:01.180Z,-6.93
2022-12-11T20:01:31.877Z,-6.97
2022-12-11T20:04:01.655Z,-7.04
2022-12-11T20:06:31.040Z,-6.99
2022-12-11T20:08:59.847Z,-6.90
2022-12-11T20:11:28.335Z,-6.82
2022-12-11T20:13:57.177Z,-6.78
2022-12-11T20:16:46.234Z,-6.71
2022-12-11T20:19:15.249Z,-6.69
2022-12-11T20:21:44.116Z,-6.57
2022-12-11T20:24:12.813Z,-6.41
2022-12-11T20:26:40.869Z,-6.44
2022-12-11T20:29:09.508Z,-6.50
2022-12-11T20:31:38.764Z,-6.60
2022-12-11T20:34:07.876Z,-6.54
2022-12-11T20:36:37.729Z,-6.54
2022-12-11T20:39:06.200Z,-6.55
2022-12-11T20:41:34.422Z,-6.70
2022-12-11T20:44:02.772Z,-6.70
2022-12-11T20:46:30.861Z,-6.98
2022-12-11T20:48:59.835Z,-6.83
2022-12-11T20:51:29.190Z,-6.76
2022-12-11T20:53:59.732Z,-6.79
2022-12-11T20:56:30.000Z,-7.05
2022-12-11T20:58:59.401Z,-6.93
2022-12-11T21:01:30.205Z,-7.06
2022-12-11T21:03:58.714Z,-7.15
2022-12-11T21:06:31.446Z,-7.18
2022-12-11T21:09:04.457Z,-7.33
2022-12-11T21:11:35.947Z,-7.29
2022-12-11T21:14:04.666Z,-7.50
2022-12-11T21:16:33.207Z,-7.24
2022-12-11T21:19:01.679Z,-7.14
2022-12-11T21:21:36.184Z,-7.04
2022-12-11T21:24:06.275Z,-7.07
2022-12-11T21:26:35.728Z,-7.17
2022-12-11T21:29:04.929Z,-7.17
2022-12-11T21:31:33.019Z,-7.28
2022-12-11T21:34:02.568Z,-7.31
2022-12-11T21:36:30.639Z,-7.27
2022-12-11T21:39:00.018Z,-7.19
2022-12-11T21:41:30.261Z,-7.34
2022-12-11T21:46:46.502Z,-7.35
2022-12-11T21:49:14.570Z,-7.13
2022-12-11T21:51:47.170Z,-7.13
2022-12-11T21:54:19.001Z,-7.42
2022-12-11T21:56:48.550Z,-7.54
2022-12-11T21:59:16.788Z,-7.53
2022-12-11T22:01:47.120Z,-7.61
2022-12-11T22:04:16.506Z,-7.07
2022-12-11T22:06:47.094Z,-7.25
2022-12-11T22:09:15.768Z,-7.18
2022-12-11T22:11:46.211Z,-7.34
2022-12-11T22:14:18.359Z,-7.07
2022-12-11T22:16:46.745Z,-7.21
2022-12-11T22:19:14.970Z,-7.15
2022-12-11T22:22:57.426Z,-7.00
2022-12-11T22:25:25.648Z,-7.01
2022-12-11T22:27:53.800Z,-6.99
2022-12-11T22:30:23.193Z,-7.13
2022-12-11T22:32:51.190Z,-6.65
2022-12-11T22:35:24.120Z,-6.50
2022-12-11T22:37:55.423Z,-6.31
2022-12-11T22:40:23.703Z,-6.34
2022-12-11T22:42:51.764Z,-6.25
2022-12-11T22:45:20.007Z,-6.22
2022-12-11T22:47:49.397Z,-6.32
2022-12-11T22:50:18.527Z,-6.23
2022-12-11T22:52:46.542Z,-6.08
2022-12-11T22:55:15.796Z,-5.97
2022-12-11T22:57:46.573Z,-6.12
2022-12-11T23:00:15.629Z,-6.09
2022-12-11T23:02:44.058Z,-5.95
2022-12-11T23:05:14.132Z,-5.80
2022-12-11T23:07:42.745Z,-5.75
2022-12-11T23:10:11.820Z,-5.80
2022-12-11T23:12:39.867Z,-5.84
2022-12-11T23:15:09.463Z,-5.80
2022-12-11T23:17:37.681Z,-5.70
2022-12-11T23:20:07.256Z,-5.70
2022-12-11T23:22:36.674Z,-5.55
2022-12-11T23:25:05.187Z,-5.60
2022-12-11T23:27:33.202Z,-5.55
2022-12-11T23:30:01.225Z,-5.60
2022-12-11T23:32:29.256Z,-6.05
2022-12-11T23:34:57.321Z,-5.61
2022-12-11T23:37:25.345Z,-5.56
2022-12-11T23:39:54.918Z,-5.56
2022-12-11T23:42:23.029Z,-5.60
2022-12-11T23:44:51.067Z,-5.78
2022-12-11T23:47:19.077Z,-5.57
2022-12-11T23:49:47.097Z,-5.83
2022-12-11T23:52:15.368Z,-5.75
2022-12-11T23:54:43.400Z,-5.85
2022-12-11T23:57:12.894Z,-5.75
2022-12-11T23:59:40.964Z,-5.87
